East Wenona, Illinois
Current Conditions -  °F | °C
As of 11:15 PM on Friday 24 Oct 2014 (Local Time) from KC75 Reporting Station
Broken Clouds Broken Clouds  
Wind Chill: 58°   Ceiling: 4800
Heat Index: 58°   Visibility: 10mi
Dew Point: 51°   Wind: 0mph
Humidity: 76%   Direction: NA
Pressure: 29.94"   Gusts: NA
Location:  41.0632°N, 89.0208°W
Report Text: KC75 250415Z AUTO 00000KT 10SM SCT034 BKN048 BKN050 15/10 A2994 RMK AO2 T01450103
Loading
Personal Weather Stations






























Interactive Weather Map New forecast layout! Learn more

10-Day Weather Forecast

Advertisements
Track Severe Weather on mobile